Time;durP1;ratioP1;P1;durP2;ratioP2;P2;SDS_P1;SDS_P2;PMS_P1;PMS_P2;Temp;Humidity;BMP_temperature;BMP_pressure;BME280_temperature;BME280_humidity;BME280_pressure;Samples;Min_cycle;Max_cycle;Signal;HPM_P1;HPM_P2
2022/03/11 00:00:28;;;;;;;19.30;10.40;;;9.40;36.80;;;;;;5079152;28;20451;-84
2022/03/11 00:02:56;;;;;;;17.30;9.53;;;9.30;36.90;;;;;;5078874;28;20505;-84
2022/03/11 00:05:25;;;;;;;18.93;8.20;;;9.30;36.80;;;;;;5085974;28;20500;-84
2022/03/11 00:07:52;;;;;;;20.93;9.13;;;9.30;36.70;;;;;;5070978;28;20446;-84
2022/03/11 00:10:19;;;;;;;13.73;8.50;;;9.30;37.10;;;;;;5086657;28;20455;-84
2022/03/11 00:12:46;;;;;;;17.80;8.70;;;9.20;37.00;;;;;;5079910;28;20850;-84
2022/03/11 00:15:13;;;;;;;20.57;9.23;;;9.20;37.20;;;;;;5086288;28;20474;-84
2022/03/11 00:17:40;;;;;;;18.73;9.37;;;9.10;37.10;;;;;;5088406;28;20456;-83
2022/03/11 00:20:09;;;;;;;18.17;8.70;;;9.10;37.70;;;;;;5062684;28;20444;-84
2022/03/11 00:22:36;;;;;;;24.30;9.33;;;9.10;37.30;;;;;;5090199;28;20479;-85
2022/03/11 00:25:03;;;;;;;15.87;9.30;;;9.10;37.90;;;;;;5086750;28;20825;-82
2022/03/11 00:27:30;;;;;;;19.43;9.23;;;9.20;37.90;;;;;;5088896;28;21012;-84
2022/03/11 00:29:57;;;;;;;15.23;9.73;;;9.20;37.70;;;;;;5096385;28;20464;-84
2022/03/11 00:32:24;;;;;;;17.13;8.90;;;9.20;37.60;;;;;;5087943;28;20471;-84
2022/03/11 00:34:51;;;;;;;17.30;8.93;;;9.20;37.10;;;;;;5089373;28;20998;-83
2022/03/11 00:37:19;;;;;;;18.73;11.70;;;9.10;37.00;;;;;;5088832;28;20452;-85
2022/03/11 00:39:46;;;;;;;13.33;8.17;;;9.10;37.60;;;;;;5085255;28;20958;-83
2022/03/11 00:42:13;;;;;;;18.30;9.50;;;9.00;37.80;;;;;;5087593;28;20475;-83
2022/03/11 00:44:40;;;;;;;17.53;9.20;;;9.00;38.00;;;;;;5087267;28;20811;-83
2022/03/11 00:47:09;;;;;;;17.33;9.10;;;8.90;38.00;;;;;;5088445;28;20449;-83
2022/03/11 00:49:36;;;;;;;20.77;10.67;;;8.90;38.20;;;;;;5097024;28;20455;-83
2022/03/11 00:52:03;;;;;;;20.90;10.57;;;8.90;38.30;;;;;;5070289;28;20480;-84
2022/03/11 00:54:32;;;;;;;17.43;10.23;;;8.90;38.20;;;;;;5087211;28;20482;-84
2022/03/11 00:56:59;;;;;;;20.23;9.67;;;8.90;37.90;;;;;;5088235;28;20455;-85
2022/03/11 00:59:25;;;;;;;18.07;10.70;;;8.90;38.20;;;;;;5088045;28;20459;-84
2022/03/11 01:01:52;;;;;;;24.87;11.43;;;8.80;38.10;;;;;;5090154;28;20479;-85
2022/03/11 01:04:19;;;;;;;24.20;11.63;;;8.70;38.50;;;;;;5094178;28;20452;-84
2022/03/11 01:06:46;;;;;;;20.47;11.13;;;8.70;38.60;;;;;;5098753;28;20448;-83
2022/03/11 01:09:13;;;;;;;23.30;11.60;;;8.60;38.90;;;;;;5099784;28;20479;-84
2022/03/11 01:11:42;;;;;;;25.03;12.73;;;8.70;38.90;;;;;;5096742;28;20471;-83
2022/03/11 01:14:09;;;;;;;25.10;12.27;;;8.60;38.80;;;;;;5093439;28;20544;-85
2022/03/11 01:16:36;;;;;;;22.57;10.87;;;8.60;38.80;;;;;;5093327;28;20465;-83
2022/03/11 01:19:03;;;;;;;28.73;12.40;;;8.60;38.80;;;;;;5081960;28;20475;-83
2022/03/11 01:21:30;;;;;;;24.20;12.23;;;8.60;38.80;;;;;;5092723;28;20478;-83
2022/03/11 01:23:57;;;;;;;27.60;12.57;;;8.60;38.60;;;;;;5091368;28;20452;-84
2022/03/11 01:26:24;;;;;;;27.90;13.53;;;8.60;38.70;;;;;;5090138;28;20973;-84
2022/03/11 01:28:53;;;;;;;36.07;15.30;;;8.60;38.70;;;;;;5079237;28;21149;-84
2022/03/11 01:31:20;;;;;;;28.50;14.23;;;8.60;39.00;;;;;;5090816;28;20463;-84
2022/03/11 01:33:47;;;;;;;26.83;13.17;;;8.50;39.10;;;;;;5090488;28;20479;-84
2022/03/11 01:36:14;;;;;;;28.90;13.50;;;8.50;39.20;;;;;;5089884;28;20476;-84
2022/03/11 01:38:41;;;;;;;28.13;15.30;;;8.50;39.40;;;;;;5093039;28;20828;-83
2022/03/11 01:41:09;;;;;;;25.30;12.33;;;8.40;39.60;;;;;;5090879;28;20486;-83
2022/03/11 01:43:52;;;;;;;27.10;12.97;;;8.40;39.30;;;;;;5106987;27;20448;-83
2022/03/11 01:46:19;;;;;;;24.30;12.90;;;8.30;39.00;;;;;;5100274;28;20451;-83
2022/03/11 01:48:46;;;;;;;28.70;12.70;;;8.30;39.50;;;;;;5090884;28;20474;-84
2022/03/11 01:51:13;;;;;;;20.83;12.90;;;8.30;39.60;;;;;;5076825;28;20474;-84
2022/03/11 01:53:41;;;;;;;27.53;13.53;;;8.30;39.80;;;;;;5081737;28;20979;-84
2022/03/11 01:56:08;;;;;;;25.53;14.63;;;8.30;39.60;;;;;;5090302;28;20450;-84
2022/03/11 01:58:36;;;;;;;26.67;12.20;;;8.30;39.70;;;;;;5093137;28;20452;-84
2022/03/11 02:01:06;;;;;;;23.87;12.80;;;8.20;39.60;;;;;;5071108;28;20471;-83
2022/03/11 02:03:33;;;;;;;24.30;12.90;;;8.10;38.90;;;;;;5090631;28;20444;-84
2022/03/11 02:06:02;;;;;;;23.33;11.60;;;8.00;39.20;;;;;;5089283;28;20817;-83
2022/03/11 02:08:30;;;;;;;25.40;12.17;;;8.00;39.70;;;;;;5091138;28;20500;-83
2022/03/11 02:10:57;;;;;;;20.10;12.00;;;7.90;40.30;;;;;;5086809;28;20483;-84
2022/03/11 02:13:24;;;;;;;27.03;12.93;;;8.00;39.40;;;;;;5070991;28;20475;-84
2022/03/11 02:15:51;;;;;;;24.57;11.50;;;7.90;39.90;;;;;;5089685;28;20467;-84
2022/03/11 02:18:19;;;;;;;22.43;12.70;;;7.90;39.80;;;;;;5090277;28;20464;-84
2022/03/11 02:20:49;;;;;;;25.30;13.67;;;7.90;40.10;;;;;;5092127;28;20458;-83
2022/03/11 02:23:19;;;;;;;21.27;12.13;;;7.90;40.10;;;;;;5091052;28;20447;-84
2022/03/11 02:25:47;;;;;;;28.87;13.90;;;7.90;40.20;;;;;;5090403;28;20459;-83
2022/03/11 02:28:14;;;;;;;28.67;12.77;;;7.80;40.40;;;;;;5087063;28;20447;-84
2022/03/11 02:30:41;;;;;;;26.10;14.53;;;7.70;40.50;;;;;;5093244;28;20466;-84
2022/03/11 02:33:07;;;;;;;24.40;12.50;;;7.80;40.50;;;;;;5093098;28;20447;-84
2022/03/11 02:35:34;;;;;;;23.67;12.87;;;7.80;40.40;;;;;;5093994;28;20483;-84
2022/03/11 02:38:01;;;;;;;26.50;13.13;;;7.90;40.70;;;;;;5079409;28;20453;-84
2022/03/11 02:40:28;;;;;;;27.10;13.30;;;7.80;40.60;;;;;;5089259;28;21179;-84
2022/03/11 02:42:57;;;;;;;23.40;12.60;;;7.80;40.70;;;;;;5092239;28;20462;-84
2022/03/11 02:45:24;;;;;;;22.60;12.83;;;7.80;40.30;;;;;;5097575;28;20937;-85
2022/03/11 02:47:50;;;;;;;23.20;11.97;;;7.80;40.10;;;;;;5090577;28;20455;-84
2022/03/11 02:50:17;;;;;;;23.27;11.40;;;7.70;40.40;;;;;;5089514;27;20447;-84
2022/03/11 02:52:44;;;;;;;23.17;12.20;;;7.70;40.50;;;;;;5088797;28;21140;-83
2022/03/11 02:55:11;;;;;;;25.33;12.07;;;7.70;40.00;;;;;;5075097;28;20579;-82
2022/03/11 02:57:39;;;;;;;22.37;12.50;;;7.60;39.90;;;;;;5090954;28;20888;-84
2022/03/11 03:00:08;;;;;;;26.00;13.23;;;7.50;40.10;;;;;;5090469;28;20446;-84
2022/03/11 03:02:36;;;;;;;27.10;13.23;;;7.50;40.10;;;;;;5092244;27;20483;-84
2022/03/11 03:05:04;;;;;;;24.40;13.40;;;7.30;39.80;;;;;;5088453;28;21024;-83
2022/03/11 03:07:31;;;;;;;27.60;12.00;;;7.20;40.50;;;;;;5061753;28;20546;-84
2022/03/11 03:09:58;;;;;;;23.30;13.30;;;7.10;40.00;;;;;;5080122;28;20467;-85
2022/03/11 03:12:25;;;;;;;23.33;12.57;;;7.00;40.10;;;;;;5090624;28;20471;-84
2022/03/11 03:14:53;;;;;;;30.30;13.60;;;7.00;39.90;;;;;;5106213;27;20479;-84
2022/03/11 03:17:22;;;;;;;26.70;12.10;;;6.90;40.60;;;;;;5092022;28;20499;-84
2022/03/11 03:19:49;;;;;;;28.63;13.40;;;6.90;41.00;;;;;;5091502;28;20463;-84
2022/03/11 03:22:16;;;;;;;22.03;11.80;;;6.90;40.90;;;;;;5091848;28;21004;-83
2022/03/11 03:24:43;;;;;;;24.37;12.33;;;6.80;41.10;;;;;;5090294;28;20451;-84
2022/03/11 03:27:10;;;;;;;23.80;12.00;;;6.60;41.00;;;;;;5097369;28;20440;-83
2022/03/11 03:29:38;;;;;;;28.90;14.17;;;6.40;42.00;;;;;;5090596;28;20455;-84
2022/03/11 03:32:05;;;;;;;26.93;11.90;;;6.40;42.10;;;;;;5070598;28;20466;-84
2022/03/11 03:34:35;;;;;;;26.83;12.30;;;6.50;42.60;;;;;;5097063;28;21025;-84
2022/03/11 03:37:07;;;;;;;22.83;12.80;;;6.60;42.10;;;;;;5089360;28;21039;-82
2022/03/11 03:39:34;;;;;;;29.37;13.03;;;6.70;41.50;;;;;;5074941;28;20439;-84
2022/03/11 03:42:01;;;;;;;25.63;14.50;;;6.70;42.30;;;;;;5088446;28;20471;-85
2022/03/11 03:44:28;;;;;;;22.97;13.10;;;6.70;41.70;;;;;;5074072;28;20442;-84
2022/03/11 03:46:55;;;;;;;23.00;12.50;;;6.80;41.50;;;;;;5087914;28;20450;-84
2022/03/11 03:49:22;;;;;;;23.60;12.70;;;6.80;41.30;;;;;;5089228;28;20446;-85
2022/03/11 03:51:51;;;;;;;23.20;11.90;;;6.90;41.60;;;;;;5088124;28;20471;-84
2022/03/11 03:54:18;;;;;;;21.93;12.77;;;6.90;41.00;;;;;;5087035;28;20475;-83
2022/03/11 03:56:47;;;;;;;28.37;14.40;;;6.80;41.50;;;;;;5073375;28;20440;-84
2022/03/11 03:59:15;;;;;;;24.50;12.83;;;6.80;41.80;;;;;;5070802;28;20985;-84
2022/03/11 04:01:43;;;;;;;23.90;13.40;;;6.70;41.80;;;;;;5087884;28;20870;-84
2022/03/11 04:04:12;;;;;;;27.73;12.97;;;6.70;41.20;;;;;;5091440;28;20450;-84
2022/03/11 04:06:42;;;;;;;31.83;13.30;;;6.50;41.10;;;;;;5073593;28;20520;-84
2022/03/11 04:09:12;;;;;;;24.63;12.57;;;6.40;41.40;;;;;;5090216;28;20451;-84
2022/03/11 04:11:40;;;;;;;25.80;12.70;;;6.30;41.90;;;;;;5097244;28;20569;-84
2022/03/11 04:14:07;;;;;;;28.13;12.83;;;6.30;41.90;;;;;;5088712;28;20490;-83
2022/03/11 04:16:35;;;;;;;26.93;14.40;;;6.10;41.60;;;;;;5087192;28;20459;-84
2022/03/11 04:19:02;;;;;;;24.10;12.50;;;6.00;42.10;;;;;;5086646;28;20455;-84
2022/03/11 04:21:28;;;;;;;21.10;12.80;;;6.00;42.60;;;;;;5087720;28;20470;-84
2022/03/11 04:23:55;;;;;;;23.83;12.27;;;6.20;42.10;;;;;;5088242;28;20458;-82
2022/03/11 04:26:24;;;;;;;33.03;15.67;;;6.30;42.30;;;;;;5088039;28;20951;-84
2022/03/11 04:28:51;;;;;;;80.50;27.67;;;6.20;42.40;;;;;;5088706;28;20447;-85
2022/03/11 04:31:18;;;;;;;67.37;31.20;;;6.30;41.80;;;;;;5089554;28;20565;-84
2022/03/11 04:33:45;;;;;;;106.60;44.50;;;6.30;42.10;;;;;;5089546;28;20447;-83
2022/03/11 04:36:12;;;;;;;80.53;37.67;;;6.40;41.80;;;;;;5091887;28;20499;-83
2022/03/11 04:38:39;;;;;;;65.27;27.43;;;6.40;42.20;;;;;;5095615;28;20450;-85
2022/03/11 04:41:07;;;;;;;80.83;31.37;;;6.40;42.00;;;;;;5092780;28;20498;-84
2022/03/11 04:43:36;;;;;;;41.10;20.20;;;6.40;41.70;;;;;;5092694;28;20455;-85
2022/03/11 04:46:03;;;;;;;30.40;14.70;;;6.50;41.20;;;;;;5083882;28;21313;-84
2022/03/11 04:48:31;;;;;;;28.77;15.70;;;6.50;41.30;;;;;;5090670;28;20444;-84
2022/03/11 04:50:58;;;;;;;26.17;13.40;;;6.50;41.40;;;;;;5076984;28;20467;-84
2022/03/11 04:53:25;;;;;;;30.43;15.87;;;6.40;41.30;;;;;;5094617;28;21041;-83
2022/03/11 04:55:52;;;;;;;32.87;15.80;;;6.50;41.50;;;;;;5091016;28;20476;-85
2022/03/11 04:58:19;;;;;;;36.33;17.10;;;6.40;41.70;;;;;;5086773;28;20508;-84
2022/03/11 05:00:47;;;;;;;35.63;19.80;;;6.30;41.90;;;;;;5089732;28;20996;-84
2022/03/11 05:03:14;;;;;;;42.63;20.43;;;6.30;41.00;;;;;;5090273;28;20481;-83
2022/03/11 05:05:41;;;;;;;49.00;24.77;;;6.30;41.30;;;;;;5093835;28;20539;-84
2022/03/11 05:08:08;;;;;;;51.90;29.20;;;6.20;41.50;;;;;;5067242;28;20447;-85
2022/03/11 05:10:35;;;;;;;64.73;34.50;;;6.20;41.20;;;;;;5094648;28;20518;-84
2022/03/11 05:13:02;;;;;;;62.37;32.63;;;6.10;41.30;;;;;;5090977;28;20500;-84
2022/03/11 05:15:29;;;;;;;51.27;25.07;;;5.90;41.30;;;;;;5072495;28;20481;-85
2022/03/11 05:17:58;;;;;;;53.73;27.77;;;5.90;41.10;;;;;;5100999;28;20859;-84
2022/03/11 05:20:25;;;;;;;41.60;22.73;;;5.80;41.60;;;;;;5089432;28;20973;-85
2022/03/11 05:22:52;;;;;;;39.30;21.07;;;5.80;41.70;;;;;;5081791;28;20475;-85
2022/03/11 05:25:19;;;;;;;39.23;18.60;;;5.90;41.20;;;;;;5089937;28;20527;-85
2022/03/11 05:27:46;;;;;;;31.20;15.80;;;5.90;40.40;;;;;;5076270;28;20451;-86
2022/03/11 05:30:14;;;;;;;42.97;17.40;;;5.80;40.40;;;;;;5082824;28;20436;-84
2022/03/11 05:32:42;;;;;;;36.70;21.20;;;5.80;40.80;;;;;;5090468;28;20474;-85
2022/03/11 05:35:11;;;;;;;36.83;21.37;;;5.60;41.60;;;;;;5094716;28;20486;-86
2022/03/11 05:37:38;;;;;;;33.40;16.50;;;5.60;41.40;;;;;;5091841;28;21047;-85
2022/03/11 05:40:06;;;;;;;30.30;19.17;;;5.60;41.30;;;;;;5091624;28;20451;-85
2022/03/11 05:42:34;;;;;;;33.00;16.83;;;5.60;41.60;;;;;;5080844;28;20467;-86
2022/03/11 05:45:03;;;;;;;25.10;14.43;;;5.60;41.50;;;;;;5091285;28;20462;-84
2022/03/11 05:47:30;;;;;;;30.20;14.63;;;5.70;41.70;;;;;;5105962;27;20563;-84
2022/03/11 05:49:57;;;;;;;31.27;15.20;;;5.70;42.00;;;;;;5093874;28;20447;-85
2022/03/11 05:52:26;;;;;;;24.10;13.13;;;5.80;41.30;;;;;;5089728;28;20518;-86
2022/03/11 05:54:54;;;;;;;25.43;12.37;;;5.80;40.50;;;;;;5089831;28;20487;-86
2022/03/11 05:57:21;;;;;;;27.30;14.80;;;5.70;40.70;;;;;;5089895;28;20528;-86
2022/03/11 05:59:47;;;;;;;27.03;15.63;;;5.70;40.30;;;;;;5091430;28;20989;-86
2022/03/11 06:02:14;;;;;;;26.37;12.63;;;5.60;41.00;;;;;;5081288;28;20467;-86
2022/03/11 06:04:41;;;;;;;19.17;12.83;;;5.60;40.50;;;;;;5097693;28;20501;-86
2022/03/11 06:07:09;;;;;;;22.60;12.53;;;5.60;40.50;;;;;;5082885;28;20447;-86
2022/03/11 06:09:37;;;;;;;24.97;13.70;;;5.60;40.90;;;;;;5089092;28;20447;-86
2022/03/11 06:12:05;;;;;;;29.03;13.93;;;5.70;40.80;;;;;;5087283;28;20477;-86
2022/03/11 06:14:32;;;;;;;27.77;14.07;;;5.70;40.10;;;;;;5084351;28;20458;-87
2022/03/11 06:16:59;;;;;;;22.90;12.83;;;5.60;39.90;;;;;;5071570;28;20544;-86
2022/03/11 06:19:26;;;;;;;22.47;11.73;;;5.60;40.50;;;;;;5075855;28;20431;-87
2022/03/11 06:21:55;;;;;;;25.43;12.00;;;5.60;40.50;;;;;;5067756;28;20474;-87
2022/03/11 06:24:22;;;;;;;22.50;11.10;;;5.60;41.00;;;;;;5093980;28;20447;-87
2022/03/11 06:26:50;;;;;;;23.63;10.93;;;5.60;41.40;;;;;;5073898;28;20479;-86
2022/03/11 06:29:17;;;;;;;21.80;10.37;;;5.80;41.40;;;;;;5082963;28;20456;-86
2022/03/11 06:31:44;;;;;;;21.77;12.63;;;5.90;41.20;;;;;;5090010;28;20988;-84
2022/03/11 06:34:11;;;;;;;30.97;13.17;;;5.90;41.20;;;;;;5087759;28;20458;-87
2022/03/11 06:36:38;;;;;;;26.77;11.83;;;5.90;40.70;;;;;;5095014;28;21171;-85
2022/03/11 06:39:08;;;;;;;25.27;11.67;;;5.90;40.50;;;;;;5089196;28;20450;-86
2022/03/11 06:41:35;;;;;;;21.07;11.40;;;5.90;40.70;;;;;;5086259;28;20487;-86
2022/03/11 06:44:04;;;;;;;26.57;12.27;;;5.90;40.60;;;;;;5070009;28;20455;-87
2022/03/11 06:46:31;;;;;;;19.23;10.80;;;5.90;40.50;;;;;;5085756;28;20469;-88
2022/03/11 06:48:58;;;;;;;27.27;11.53;;;5.90;40.70;;;;;;5087115;28;20435;-87
2022/03/11 06:51:24;;;;;;;23.20;11.80;;;5.90;41.00;;;;;;5078301;28;20464;-87
2022/03/11 06:53:51;;;;;;;23.53;11.23;;;5.90;41.00;;;;;;5083922;28;20439;-87
2022/03/11 06:56:18;;;;;;;19.37;11.20;;;6.00;40.90;;;;;;5086355;28;20476;-86
2022/03/11 06:58:45;;;;;;;18.00;10.50;;;6.00;40.80;;;;;;5086204;28;21161;-87
2022/03/11 07:01:16;;;;;;;27.20;13.20;;;6.10;40.50;;;;;;5085356;28;21035;-86
2022/03/11 07:03:43;;;;;;;26.97;11.23;;;6.10;40.30;;;;;;5074872;28;20452;-87
2022/03/11 07:06:10;;;;;;;19.03;9.80;;;6.20;40.00;;;;;;5077479;28;20447;-87
2022/03/11 07:08:37;;;;;;;19.80;10.23;;;6.20;39.80;;;;;;5071840;28;20525;-86
2022/03/11 07:11:04;;;;;;;14.97;7.70;;;6.20;39.40;;;;;;5063979;28;20474;-87
2022/03/11 07:13:31;;;;;;;22.53;10.40;;;6.20;39.40;;;;;;5088481;28;20539;-87
2022/03/11 07:15:58;;;;;;;18.00;9.40;;;6.20;39.30;;;;;;5087121;28;20478;-88
2022/03/11 07:18:27;;;;;;;22.00;10.20;;;6.10;39.40;;;;;;5079419;28;20443;-88
2022/03/11 07:20:54;;;;;;;20.93;10.33;;;6.20;39.70;;;;;;5092758;28;20444;-87
2022/03/11 07:23:21;;;;;;;18.63;9.23;;;6.30;39.60;;;;;;5084397;28;20452;-88
2022/03/11 07:25:48;;;;;;;20.53;10.33;;;6.30;39.80;;;;;;5067314;28;20439;-86
2022/03/11 07:28:15;;;;;;;15.10;8.63;;;6.40;38.70;;;;;;5090402;28;21208;-87
2022/03/11 07:30:42;;;;;;;30.53;10.27;;;6.40;38.50;;;;;;5076314;28;20546;-87
2022/03/11 07:33:11;;;;;;;16.20;9.60;;;6.20;37.80;;;;;;5088659;28;20771;-87
2022/03/11 07:35:39;;;;;;;25.73;9.10;;;5.90;37.80;;;;;;5094999;28;20470;-86
2022/03/11 07:38:08;;;;;;;16.50;9.70;;;5.90;38.30;;;;;;5091416;28;20555;-87
2022/03/11 07:40:35;;;;;;;17.00;7.77;;;5.90;37.80;;;;;;5088963;28;20455;-87
2022/03/11 07:43:02;;;;;;;20.23;9.10;;;6.00;37.60;;;;;;5066182;28;20459;-86
2022/03/11 07:45:30;;;;;;;14.03;8.27;;;6.00;37.40;;;;;;5077926;28;20528;-86
2022/03/11 07:47:57;;;;;;;15.90;7.73;;;6.10;37.30;;;;;;5081058;28;20443;-86
2022/03/11 07:50:24;;;;;;;13.00;7.67;;;5.90;36.70;;;;;;5076619;28;20462;-87
2022/03/11 07:52:52;;;;;;;13.90;7.00;;;6.00;37.40;;;;;;5090188;28;21128;-86
2022/03/11 07:55:22;;;;;;;13.80;7.23;;;6.00;36.30;;;;;;5066360;28;20993;-87
2022/03/11 07:57:48;;;;;;;12.20;6.50;;;6.00;36.40;;;;;;5077507;28;20967;-84
2022/03/11 08:00:17;;;;;;;15.50;7.73;;;6.10;36.30;;;;;;5097115;28;20444;-86
2022/03/11 08:02:44;;;;;;;17.60;7.93;;;6.10;36.10;;;;;;5076323;28;20760;-84
2022/03/11 08:05:14;;;;;;;14.43;6.20;;;6.10;35.50;;;;;;5080847;28;21267;-87
2022/03/11 08:07:45;;;;;;;10.93;6.83;;;6.30;36.30;;;;;;5055154;28;20447;-85
2022/03/11 08:10:13;;;;;;;15.63;6.77;;;6.30;35.40;;;;;;5086202;28;20486;-86
2022/03/11 08:12:41;;;;;;;19.87;7.73;;;6.10;34.50;;;;;;5089836;28;20468;-86
2022/03/11 08:15:11;;;;;;;17.80;7.30;;;6.20;35.70;;;;;;5084661;28;20455;-86
2022/03/11 08:17:40;;;;;;;13.27;7.43;;;6.30;34.90;;;;;;5085923;28;20477;-87
2022/03/11 08:20:08;;;;;;;13.93;8.00;;;6.40;34.60;;;;;;5086338;28;20812;-86
2022/03/11 08:22:35;;;;;;;9.97;4.77;;;6.40;34.50;;;;;;5089092;28;21286;-85
2022/03/11 08:25:08;;;;;;;12.30;7.13;;;6.40;33.80;;;;;;5084188;28;20447;-86
2022/03/11 08:27:40;;;;;;;12.77;7.10;;;6.30;34.30;;;;;;5093028;28;20535;-86
2022/03/11 08:30:08;;;;;;;13.87;6.43;;;6.40;34.50;;;;;;5069453;28;20869;-86
2022/03/11 08:32:36;;;;;;;9.90;6.50;;;6.70;34.20;;;;;;5087150;28;20570;-85
2022/03/11 08:35:03;;;;;;;12.00;6.20;;;6.90;33.90;;;;;;5087955;28;20462;-87
2022/03/11 08:37:30;;;;;;;7.00;5.63;;;6.80;33.10;;;;;;5068028;28;20789;-86
2022/03/11 08:39:57;;;;;;;12.57;7.17;;;6.70;33.00;;;;;;5085049;28;20591;-86
2022/03/11 08:42:24;;;;;;;14.07;7.40;;;6.80;33.20;;;;;;5074870;28;20850;-86
2022/03/11 08:44:53;;;;;;;14.93;6.87;;;6.80;32.80;;;;;;5079526;28;20447;-86
2022/03/11 08:47:20;;;;;;;10.47;5.70;;;7.00;32.70;;;;;;5086450;28;20451;-86
2022/03/11 08:49:47;;;;;;;18.53;8.27;;;7.00;32.30;;;;;;5070031;28;20455;-87
2022/03/11 08:52:14;;;;;;;15.87;7.93;;;7.00;32.30;;;;;;5088383;28;22404;-84
2022/03/11 08:54:41;;;;;;;17.33;7.80;;;7.10;31.90;;;;;;5088260;28;20456;-85
2022/03/11 08:57:08;;;;;;;13.67;8.27;;;6.80;31.80;;;;;;5087413;28;20470;-85
2022/03/11 08:59:35;;;;;;;16.00;9.23;;;6.60;33.20;;;;;;5084058;28;21147;-87
2022/03/11 09:02:06;;;;;;;11.83;6.60;;;6.80;32.40;;;;;;5089045;28;20482;-87
2022/03/11 09:04:34;;;;;;;14.37;7.70;;;7.00;32.70;;;;;;5088955;28;20462;-85
2022/03/11 09:07:02;;;;;;;15.67;7.43;;;7.20;32.50;;;;;;5068515;28;20450;-85
2022/03/11 09:09:32;;;;;;;11.67;6.77;;;7.50;32.00;;;;;;5086911;28;20448;-88
2022/03/11 09:11:59;;;;;;;13.17;6.87;;;7.50;31.10;;;;;;5080918;28;20480;-85
2022/03/11 09:14:26;;;;;;;27.20;10.90;;;7.30;31.60;;;;;;5071737;28;20444;-86
2022/03/11 09:16:53;;;;;;;13.37;7.40;;;7.40;32.30;;;;;;5061937;28;20563;-84
2022/03/11 09:19:22;;;;;;;11.50;5.80;;;7.60;31.80;;;;;;5085738;28;20820;-86
2022/03/11 09:21:49;;;;;;;15.77;7.80;;;7.70;31.10;;;;;;5070203;28;20478;-86
2022/03/11 09:24:16;;;;;;;13.37;7.60;;;7.90;31.00;;;;;;5090961;28;20471;-86
2022/03/11 09:26:45;;;;;;;11.93;7.23;;;7.90;31.10;;;;;;5063218;28;20455;-86
2022/03/11 09:29:13;;;;;;;30.63;11.27;;;8.10;31.10;;;;;;5056791;28;20455;-85
2022/03/11 09:31:40;;;;;;;14.73;6.13;;;8.20;30.80;;;;;;5062034;28;20489;-86
2022/03/11 09:34:08;;;;;;;15.97;8.07;;;8.30;30.20;;;;;;5056033;28;20455;-87
2022/03/11 09:36:36;;;;;;;15.73;8.43;;;8.50;30.80;;;;;;5057644;28;20470;-87
2022/03/11 09:39:03;;;;;;;13.17;7.00;;;8.80;30.30;;;;;;5094333;28;20926;-87
2022/03/11 09:41:30;;;;;;;9.63;7.07;;;9.00;30.00;;;;;;5087698;28;20466;-86
2022/03/11 09:43:57;;;;;;;12.07;6.67;;;9.00;29.60;;;;;;5088303;28;21196;-87
2022/03/11 09:46:26;;;;;;;8.77;6.47;;;9.10;29.50;;;;;;5075827;28;20446;-87
2022/03/11 09:48:54;;;;;;;13.43;6.67;;;9.30;29.90;;;;;;5088364;28;20962;-87
2022/03/11 09:51:21;;;;;;;11.07;6.30;;;9.50;29.40;;;;;;5074103;28;20456;-86
2022/03/11 09:53:52;;;;;;;14.37;7.00;;;9.80;28.70;;;;;;5093537;28;20462;-86
2022/03/11 09:56:21;;;;;;;12.27;6.90;;;9.90;29.20;;;;;;5078293;28;20474;-86
2022/03/11 09:58:48;;;;;;;7.47;5.40;;;10.20;27.90;;;;;;5083574;28;20443;-86
2022/03/11 10:01:15;;;;;;;13.20;7.47;;;10.10;27.40;;;;;;5089439;28;20999;-87
2022/03/11 10:03:42;;;;;;;12.33;7.40;;;10.00;27.60;;;;;;5081658;28;20949;-86
2022/03/11 10:06:09;;;;;;;11.47;6.70;;;10.10;27.70;;;;;;5059362;28;20458;-88
2022/03/11 10:08:38;;;;;;;9.90;7.00;;;10.10;27.40;;;;;;5094062;28;20917;-86
2022/03/11 10:11:22;;;;;;;9.73;5.70;;;10.10;27.90;;;;;;5091279;28;20476;-88
2022/03/11 10:13:51;;;;;;;10.70;6.80;;;10.40;27.50;;;;;;5091950;28;20538;-87
2022/03/11 10:16:22;;;;;;;11.23;6.37;;;10.60;27.90;;;;;;5084986;28;20452;-89
2022/03/11 10:18:57;;;;;;;9.47;6.23;;;11.10;27.50;;;;;;5086927;28;20448;-88
2022/03/11 10:21:31;;;;;;;9.30;6.30;;;11.10;26.50;;;;;;5070029;28;21057;-88
2022/03/11 10:23:59;;;;;;;8.63;6.23;;;11.20;26.80;;;;;;5083534;28;20439;-86
2022/03/11 10:26:36;;;;;;;19.60;7.43;;;11.40;27.00;;;;;;5089406;28;20504;-86
2022/03/11 10:29:08;;;;;;;11.23;6.83;;;11.70;26.30;;;;;;5087875;28;20583;-86
2022/03/11 10:31:39;;;;;;;12.97;6.90;;;11.70;26.50;;;;;;5090688;28;20590;-86
2022/03/11 10:34:14;;;;;;;15.10;7.97;;;11.70;26.10;;;;;;5086879;28;20527;-84
2022/03/11 10:36:47;;;;;;;13.10;8.10;;;11.50;26.10;;;;;;5078530;28;20481;-86
2022/03/11 10:39:15;;;;;;;9.33;7.13;;;11.70;26.60;;;;;;5064822;28;20439;-86
2022/03/11 10:41:43;;;;;;;12.47;8.23;;;12.00;26.30;;;;;;5089113;28;20539;-86
2022/03/11 10:44:12;;;;;;;12.33;7.30;;;12.20;26.10;;;;;;5090476;28;20455;-85
2022/03/11 10:46:40;;;;;;;11.87;6.20;;;12.20;25.30;;;;;;5091034;28;20953;-86
2022/03/11 10:49:07;;;;;;;16.53;7.20;;;12.00;25.60;;;;;;5073698;28;20521;-86
2022/03/11 10:51:36;;;;;;;12.90;7.73;;;12.00;25.90;;;;;;5090735;28;20463;-86
2022/03/11 10:54:06;;;;;;;12.63;7.80;;;12.10;26.40;;;;;;5076034;28;20474;-86
2022/03/11 10:56:34;;;;;;;15.30;6.97;;;12.50;26.20;;;;;;5093346;28;21307;-87
2022/03/11 10:59:05;;;;;;;11.50;6.90;;;12.60;25.40;;;;;;5091639;28;20567;-86
2022/03/11 11:01:37;;;;;;;12.80;7.50;;;12.60;26.10;;;;;;5092265;28;20479;-86
2022/03/11 11:04:07;;;;;;;14.77;8.40;;;12.90;25.80;;;;;;5088536;28;20950;-87
2022/03/11 11:06:34;;;;;;;15.33;7.83;;;13.30;25.00;;;;;;5089855;28;20519;-87
2022/03/11 11:09:02;;;;;;;18.50;7.63;;;13.30;24.70;;;;;;5087901;28;20487;-85
2022/03/11 11:11:30;;;;;;;15.23;8.50;;;13.10;24.80;;;;;;5088252;28;20471;-88
2022/03/11 11:13:57;;;;;;;10.13;6.13;;;13.20;24.90;;;;;;5090054;28;20479;-86
2022/03/11 11:16:27;;;;;;;14.10;7.60;;;13.20;24.80;;;;;;5089432;28;20461;-87
2022/03/11 11:18:58;;;;;;;9.83;5.97;;;13.40;24.90;;;;;;5087339;28;20483;-87
2022/03/11 11:21:26;;;;;;;12.23;7.37;;;13.80;24.60;;;;;;5088973;28;21154;-86
2022/03/11 11:23:55;;;;;;;13.53;8.10;;;13.80;24.20;;;;;;5086757;28;20447;-86
2022/03/11 11:26:22;;;;;;;12.30;6.83;;;13.80;24.30;;;;;;5074797;28;20550;-85
2022/03/11 11:28:51;;;;;;;13.07;7.40;;;13.80;24.40;;;;;;5087533;28;20447;-86
2022/03/11 11:31:20;;;;;;;13.70;6.67;;;14.10;23.90;;;;;;5101063;27;20475;-86
2022/03/11 11:33:49;;;;;;;10.53;7.20;;;13.90;23.80;;;;;;5092162;28;20509;-86
2022/03/11 11:36:34;;;;;;;17.87;7.40;;;13.90;24.00;;;;;;5090209;28;20447;-86
2022/03/11 11:39:03;;;;;;;15.10;6.77;;;14.20;24.40;;;;;;5091025;28;20440;-85
2022/03/11 11:41:32;;;;;;;14.13;7.97;;;14.50;23.10;;;;;;5094189;28;20463;-87
2022/03/11 11:44:00;;;;;;;16.70;8.53;;;14.60;23.10;;;;;;5086096;28;20545;-86
2022/03/11 11:46:28;;;;;;;10.63;7.20;;;14.80;23.30;;;;;;5088235;28;20511;-85
2022/03/11 11:49:06;;;;;;;12.53;7.27;;;15.00;22.30;;;;;;5067792;28;20500;-86
2022/03/11 11:51:56;;;;;;;9.60;6.77;;;15.20;22.40;;;;;;5088502;28;20462;-87
2022/03/11 11:54:46;;;;;;;9.17;6.70;;;14.90;22.10;;;;;;5071324;28;20463;-87
2022/03/11 11:57:24;;;;;;;14.50;7.90;;;15.10;22.60;;;;;;5070294;28;20548;-88
2022/03/11 11:59:51;;;;;;;13.27;8.27;;;15.20;22.70;;;;;;5071016;28;20447;-87
2022/03/11 12:02:32;;;;;;;11.33;7.33;;;15.30;22.50;;;;;;5085014;28;20883;-86
2022/03/11 12:05:22;;;;;;;10.43;7.13;;;15.60;22.60;;;;;;5071997;28;20509;-88
2022/03/11 12:07:50;;;;;;;13.33;7.10;;;16.00;21.70;;;;;;5088833;28;20452;-87
2022/03/11 12:10:25;;;;;;;10.83;7.37;;;16.40;21.60;;;;;;5087135;28;20543;-87
2022/03/11 12:13:01;;;;;;;9.33;7.00;;;16.50;21.10;;;;;;5086482;28;20459;-87
2022/03/11 12:15:32;;;;;;;9.90;7.17;;;16.40;21.00;;;;;;5059754;28;20455;-87
2022/03/11 12:18:00;;;;;;;11.97;7.80;;;16.30;21.70;;;;;;5086896;28;20467;-88
2022/03/11 12:20:32;;;;;;;12.90;6.63;;;16.40;21.00;;;;;;5089126;28;20452;-87
2022/03/11 12:23:00;;;;;;;11.83;6.70;;;16.60;20.90;;;;;;5087813;28;20984;-87
2022/03/11 12:25:29;;;;;;;11.10;5.73;;;16.70;21.00;;;;;;5088506;28;20463;-85
2022/03/11 12:28:01;;;;;;;11.40;7.03;;;16.90;21.30;;;;;;5071171;28;20447;-87
2022/03/11 12:30:29;;;;;;;9.40;7.27;;;16.50;20.70;;;;;;5072953;28;20469;-86
2022/03/11 12:32:59;;;;;;;11.00;6.00;;;16.70;21.00;;;;;;5088761;28;20565;-87
2022/03/11 12:35:26;;;;;;;11.53;6.80;;;16.50;20.50;;;;;;5085304;28;20843;-86
2022/03/11 12:37:55;;;;;;;11.27;6.80;;;16.30;21.10;;;;;;5094943;28;20474;-86
2022/03/11 12:40:23;;;;;;;10.43;6.20;;;16.10;20.80;;;;;;5077584;28;21173;-86
2022/03/11 12:42:57;;;;;;;12.27;7.77;;;16.30;20.50;;;;;;5070115;28;20491;-87
2022/03/11 12:45:39;;;;;;;8.80;6.60;;;16.80;21.00;;;;;;5077553;28;20559;-87